sensor_id;sensor_type;location;lat;lon;timestamp;pressure;altitude;pressure_sealevel;temperature;humidity
43878;BME280;29815;48.184;11.268;2023-02-28T00:00:50;96013.72;;;-3.14;100.00
43878;BME280;29815;48.184;11.268;2023-02-28T00:03:20;96009.13;;;-3.12;100.00
43878;BME280;29815;48.184;11.268;2023-02-28T00:05:49;96005.19;;;-3.16;100.00
43878;BME280;29815;48.184;11.268;2023-02-28T00:08:19;96006.53;;;-3.20;100.00
43878;BME280;29815;48.184;11.268;2023-02-28T00:10:48;96008.50;;;-3.22;100.00
43878;BME280;29815;48.184;11.268;2023-02-28T00:13:18;95998.31;;;-3.25;100.00
43878;BME280;29815;48.184;11.268;2023-02-28T00:15:59;95998.50;;;-3.27;100.00
43878;BME280;29815;48.184;11.268;2023-02-28T00:18:29;96002.31;;;-3.29;100.00
43878;BME280;29815;48.184;11.268;2023-02-28T00:20:59;96002.47;;;-3.31;100.00
43878;BME280;29815;48.184;11.268;2023-02-28T00:23:29;96001.19;;;-3.35;100.00
43878;BME280;29815;48.184;11.268;2023-02-28T00:25:58;95999.88;;;-3.39;100.00
43878;BME280;29815;48.184;11.268;2023-02-28T00:28:28;96000.88;;;-3.40;100.00
43878;BME280;29815;48.184;11.268;2023-02-28T00:31:01;95998.41;;;-3.42;100.00
43878;BME280;29815;48.184;11.268;2023-02-28T00:33:30;95993.97;;;-3.41;100.00
43878;BME280;29815;48.184;11.268;2023-02-28T00:36:07;95996.78;;;-3.43;100.00
43878;BME280;29815;48.184;11.268;2023-02-28T00:38:39;96000.75;;;-3.47;100.00
43878;BME280;29815;48.184;11.268;2023-02-28T00:41:09;95993.66;;;-3.46;100.00
43878;BME280;29815;48.184;11.268;2023-02-28T00:43:40;95990.22;;;-3.47;100.00
43878;BME280;29815;48.184;11.268;2023-02-28T00:46:13;95992.72;;;-3.53;100.00
43878;BME280;29815;48.184;11.268;2023-02-28T00:48:42;95991.06;;;-3.54;100.00
43878;BME280;29815;48.184;11.268;2023-02-28T00:51:12;95984.38;;;-3.57;100.00
43878;BME280;29815;48.184;11.268;2023-02-28T00:53:41;95995.22;;;-3.60;100.00
43878;BME280;29815;48.184;11.268;2023-02-28T00:56:11;95997.03;;;-3.60;100.00
43878;BME280;29815;48.184;11.268;2023-02-28T00:58:41;95990.47;;;-3.64;100.00
43878;BME280;29815;48.184;11.268;2023-02-28T01:01:13;95994.09;;;-3.65;100.00
43878;BME280;29815;48.184;11.268;2023-02-28T01:03:42;95994.91;;;-3.65;100.00
43878;BME280;29815;48.184;11.268;2023-02-28T01:06:12;95988.00;;;-3.66;100.00
43878;BME280;29815;48.184;11.268;2023-02-28T01:08:41;96001.34;;;-3.67;100.00
43878;BME280;29815;48.184;11.268;2023-02-28T01:11:14;95990.81;;;-3.67;100.00
43878;BME280;29815;48.184;11.268;2023-02-28T01:13:46;95992.13;;;-3.71;100.00
43878;BME280;29815;48.184;11.268;2023-02-28T01:16:17;95986.88;;;-3.71;100.00
43878;BME280;29815;48.184;11.268;2023-02-28T01:18:47;95985.25;;;-3.72;100.00
43878;BME280;29815;48.184;11.268;2023-02-28T01:21:20;95985.56;;;-3.76;100.00
43878;BME280;29815;48.184;11.268;2023-02-28T01:23:51;95980.00;;;-3.81;100.00
43878;BME280;29815;48.184;11.268;2023-02-28T01:26:22;95989.25;;;-3.85;100.00
43878;BME280;29815;48.184;11.268;2023-02-28T01:28:52;95986.97;;;-3.88;100.00
43878;BME280;29815;48.184;11.268;2023-02-28T01:31:24;95986.31;;;-3.90;100.00
43878;BME280;29815;48.184;11.268;2023-02-28T01:33:54;95991.91;;;-3.93;100.00
43878;BME280;29815;48.184;11.268;2023-02-28T01:36:25;95985.00;;;-3.94;100.00
43878;BME280;29815;48.184;11.268;2023-02-28T01:38:56;95979.44;;;-3.99;100.00
43878;BME280;29815;48.184;11.268;2023-02-28T01:41:30;95979.25;;;-3.97;100.00
43878;BME280;29815;48.184;11.268;2023-02-28T01:44:05;95975.97;;;-3.99;100.00
43878;BME280;29815;48.184;11.268;2023-02-28T01:46:36;95975.31;;;-4.01;100.00
43878;BME280;29815;48.184;11.268;2023-02-28T01:49:11;95969.56;;;-4.05;100.00
43878;BME280;29815;48.184;11.268;2023-02-28T01:51:46;95966.94;;;-4.05;100.00
43878;BME280;29815;48.184;11.268;2023-02-28T01:54:23;95976.66;;;-4.05;100.00
43878;BME280;29815;48.184;11.268;2023-02-28T01:56:58;95977.81;;;-4.08;100.00
43878;BME280;29815;48.184;11.268;2023-02-28T01:59:36;95976.16;;;-4.09;100.00
43878;BME280;29815;48.184;11.268;2023-02-28T02:02:10;95967.66;;;-4.11;100.00
43878;BME280;29815;48.184;11.268;2023-02-28T02:04:45;95968.81;;;-4.14;100.00
43878;BME280;29815;48.184;11.268;2023-02-28T02:07:22;95960.25;;;-4.16;100.00
43878;BME280;29815;48.184;11.268;2023-02-28T02:10:01;95960.59;;;-4.19;100.00
43878;BME280;29815;48.184;11.268;2023-02-28T02:13:16;95957.81;;;-4.17;100.00
43878;BME280;29815;48.184;11.268;2023-02-28T02:16:02;95956.34;;;-4.20;100.00
43878;BME280;29815;48.184;11.268;2023-02-28T02:18:43;95947.97;;;-4.23;100.00
43878;BME280;29815;48.184;11.268;2023-02-28T02:22:00;95953.38;;;-4.25;100.00
43878;BME280;29815;48.184;11.268;2023-02-28T02:25:15;95958.81;;;-4.26;100.00
43878;BME280;29815;48.184;11.268;2023-02-28T02:28:35;95951.59;;;-4.32;100.00
43878;BME280;29815;48.184;11.268;2023-02-28T02:31:40;95946.50;;;-4.34;100.00
43878;BME280;29815;48.184;11.268;2023-02-28T02:34:39;95937.16;;;-4.36;100.00
43878;BME280;29815;48.184;11.268;2023-02-28T02:37:20;95938.94;;;-4.37;100.00
43878;BME280;29815;48.184;11.268;2023-02-28T02:40:04;95940.94;;;-4.39;100.00
43878;BME280;29815;48.184;11.268;2023-02-28T02:42:46;95936.84;;;-4.41;100.00
43878;BME280;29815;48.184;11.268;2023-02-28T02:45:25;95931.75;;;-4.43;100.00
43878;BME280;29815;48.184;11.268;2023-02-28T02:47:57;95927.84;;;-4.47;100.00
43878;BME280;29815;48.184;11.268;2023-02-28T02:50:36;95944.25;;;-4.45;100.00
43878;BME280;29815;48.184;11.268;2023-02-28T02:53:09;95943.59;;;-4.47;100.00
43878;BME280;29815;48.184;11.268;2023-02-28T02:55:43;95928.97;;;-4.50;100.00
43878;BME280;29815;48.184;11.268;2023-02-28T02:58:18;95928.50;;;-4.53;100.00
43878;BME280;29815;48.184;11.268;2023-02-28T03:00:54;95936.53;;;-4.55;100.00
43878;BME280;29815;48.184;11.268;2023-02-28T03:03:28;95938.19;;;-4.54;100.00
43878;BME280;29815;48.184;11.268;2023-02-28T03:06:01;95946.88;;;-4.53;100.00
43878;BME280;29815;48.184;11.268;2023-02-28T03:08:35;95938.19;;;-4.54;100.00
43878;BME280;29815;48.184;11.268;2023-02-28T03:11:11;95951.63;;;-4.57;100.00
43878;BME280;29815;48.184;11.268;2023-02-28T03:14:08;95953.44;;;-4.57;100.00
43878;BME280;29815;48.184;11.268;2023-02-28T03:17:05;95940.47;;;-4.59;100.00
43878;BME280;29815;48.184;11.268;2023-02-28T03:20:02;95951.97;;;-4.60;100.00
43878;BME280;29815;48.184;11.268;2023-02-28T03:22:52;95950.50;;;-4.62;100.00
43878;BME280;29815;48.184;11.268;2023-02-28T03:25:33;95948.03;;;-4.64;100.00
43878;BME280;29815;48.184;11.268;2023-02-28T03:28:13;95954.94;;;-4.63;100.00
43878;BME280;29815;48.184;11.268;2023-02-28T03:30:49;95953.28;;;-4.64;100.00
43878;BME280;29815;48.184;11.268;2023-02-28T03:33:25;95958.06;;;-4.67;100.00
43878;BME280;29815;48.184;11.268;2023-02-28T03:36:01;95952.00;;;-4.68;100.00
43878;BME280;29815;48.184;11.268;2023-02-28T03:38:38;95951.19;;;-4.68;100.00
43878;BME280;29815;48.184;11.268;2023-02-28T03:41:14;95949.53;;;-4.69;100.00
43878;BME280;29815;48.184;11.268;2023-02-28T03:43:50;95941.16;;;-4.73;100.00
43878;BME280;29815;48.184;11.268;2023-02-28T03:46:26;95943.47;;;-4.70;100.00
43878;BME280;29815;48.184;11.268;2023-02-28T03:49:03;95951.19;;;-4.68;100.00
43878;BME280;29815;48.184;11.268;2023-02-28T03:51:38;95949.88;;;-4.72;100.00
43878;BME280;29815;48.184;11.268;2023-02-28T03:54:15;95953.16;;;-4.70;100.00
43878;BME280;29815;48.184;11.268;2023-02-28T03:56:53;95954.97;;;-4.71;100.00
43878;BME280;29815;48.184;11.268;2023-02-28T03:59:28;95947.56;;;-4.75;100.00
43878;BME280;29815;48.184;11.268;2023-02-28T04:02:01;95962.19;;;-4.73;100.00
43878;BME280;29815;48.184;11.268;2023-02-28T04:04:31;95967.09;;;-4.70;100.00
43878;BME280;29815;48.184;11.268;2023-02-28T04:07:04;95964.31;;;-4.68;100.00
43878;BME280;29815;48.184;11.268;2023-02-28T04:09:37;95975.28;;;-4.65;100.00
43878;BME280;29815;48.184;11.268;2023-02-28T04:12:07;95977.09;;;-4.57;100.00
43878;BME280;29815;48.184;11.268;2023-02-28T04:14:37;95978.06;;;-4.58;100.00
43878;BME280;29815;48.184;11.268;2023-02-28T04:17:06;95978.22;;;-4.52;100.00
43878;BME280;29815;48.184;11.268;2023-02-28T04:19:36;95992.84;;;-4.49;100.00
43878;BME280;29815;48.184;11.268;2023-02-28T04:22:06;95986.59;;;-4.48;100.00
43878;BME280;29815;48.184;11.268;2023-02-28T04:24:38;95991.69;;;-4.47;100.00
43878;BME280;29815;48.184;11.268;2023-02-28T04:27:09;95988.09;;;-4.46;100.00
43878;BME280;29815;48.184;11.268;2023-02-28T04:29:39;95996.13;;;-4.39;100.00
43878;BME280;29815;48.184;11.268;2023-02-28T04:32:13;95989.06;;;-4.38;100.00
43878;BME280;29815;48.184;11.268;2023-02-28T04:34:42;95997.25;;;-4.33;100.00
43878;BME280;29815;48.184;11.268;2023-02-28T04:37:12;95990.00;;;-4.31;100.00
43878;BME280;29815;48.184;11.268;2023-02-28T04:39:43;95989.69;;;-4.28;100.00
43878;BME280;29815;48.184;11.268;2023-02-28T04:42:13;95982.13;;;-4.23;100.00
43878;BME280;29815;48.184;11.268;2023-02-28T04:44:42;95986.22;;;-4.21;100.00
43878;BME280;29815;48.184;11.268;2023-02-28T04:47:12;95984.91;;;-4.17;100.00
43878;BME280;29815;48.184;11.268;2023-02-28T04:49:41;95981.13;;;-4.14;100.00
43878;BME280;29815;48.184;11.268;2023-02-28T04:52:11;95991.59;;;-4.06;100.00
43878;BME280;29815;48.184;11.268;2023-02-28T04:54:42;95989.13;;;-4.07;100.00
43878;BME280;29815;48.184;11.268;2023-02-28T04:57:12;95990.44;;;-4.03;100.00
43878;BME280;29815;48.184;11.268;2023-02-28T04:59:42;95989.13;;;-3.99;100.00
43878;BME280;29815;48.184;11.268;2023-02-28T05:02:12;95986.31;;;-3.98;100.00
43878;BME280;29815;48.184;11.268;2023-02-28T05:04:41;95988.78;;;-3.96;100.00
43878;BME280;29815;48.184;11.268;2023-02-28T05:07:11;95985.00;;;-3.94;100.00
43878;BME280;29815;48.184;11.268;2023-02-28T05:09:41;96001.09;;;-3.89;100.00
43878;BME280;29815;48.184;11.268;2023-02-28T05:12:11;95989.59;;;-3.88;100.00
43878;BME280;29815;48.184;11.268;2023-02-28T05:14:41;95995.50;;;-3.86;100.00
43878;BME280;29815;48.184;11.268;2023-02-28T05:17:10;95998.13;;;-3.86;100.00
43878;BME280;29815;48.184;11.268;2023-02-28T05:19:40;95991.72;;;-3.83;100.00
43878;BME280;29815;48.184;11.268;2023-02-28T05:22:13;95995.94;;;-3.82;100.00
43878;BME280;29815;48.184;11.268;2023-02-28T05:24:45;95999.22;;;-3.80;100.00
43878;BME280;29815;48.184;11.268;2023-02-28T05:27:15;96000.06;;;-3.80;100.00
43878;BME280;29815;48.184;11.268;2023-02-28T05:29:44;95999.72;;;-3.77;100.00
43878;BME280;29815;48.184;11.268;2023-02-28T05:32:15;95992.66;;;-3.76;100.00
43878;BME280;29815;48.184;11.268;2023-02-28T05:34:44;95996.75;;;-3.73;100.00
43878;BME280;29815;48.184;11.268;2023-02-28T05:37:15;96001.84;;;-3.72;100.00
43878;BME280;29815;48.184;11.268;2023-02-28T05:39:45;96002.31;;;-3.68;100.00
43878;BME280;29815;48.184;11.268;2023-02-28T05:42:15;95994.44;;;-3.68;100.00
43878;BME280;29815;48.184;11.268;2023-02-28T05:44:45;95992.47;;;-3.66;100.00
43878;BME280;29815;48.184;11.268;2023-02-28T05:47:15;95988.84;;;-3.65;100.00
43878;BME280;29815;48.184;11.268;2023-02-28T05:49:44;95998.19;;;-3.63;100.00
43878;BME280;29815;48.184;11.268;2023-02-28T05:52:15;95997.38;;;-3.63;100.00
43878;BME280;29815;48.184;11.268;2023-02-28T05:54:46;95998.38;;;-3.64;100.00
43878;BME280;29815;48.184;11.268;2023-02-28T05:57:16;96006.91;;;-3.62;100.00
43878;BME280;29815;48.184;11.268;2023-02-28T05:59:51;96005.75;;;-3.60;100.00
43878;BME280;29815;48.184;11.268;2023-02-28T06:02:21;96002.31;;;-3.60;100.00
43878;BME280;29815;48.184;11.268;2023-02-28T06:04:50;95997.53;;;-3.57;100.00
43878;BME280;29815;48.184;11.268;2023-02-28T06:07:20;96005.84;;;-3.53;100.00
43878;BME280;29815;48.184;11.268;2023-02-28T06:09:51;96017.22;;;-3.53;100.00
43878;BME280;29815;48.184;11.268;2023-02-28T06:12:21;96011.50;;;-3.56;100.00
43878;BME280;29815;48.184;11.268;2023-02-28T06:14:50;96007.06;;;-3.56;100.00
43878;BME280;29815;48.184;11.268;2023-02-28T06:17:20;96012.13;;;-3.54;100.00
43878;BME280;29815;48.184;11.268;2023-02-28T06:19:49;96011.78;;;-3.51;100.00
43878;BME280;29815;48.184;11.268;2023-02-28T06:22:19;96010.13;;;-3.52;100.00
43878;BME280;29815;48.184;11.268;2023-02-28T06:24:48;96015.22;;;-3.51;100.00
43878;BME280;29815;48.184;11.268;2023-02-28T06:27:19;96021.13;;;-3.49;100.00
43878;BME280;29815;48.184;11.268;2023-02-28T06:29:54;96028.22;;;-3.49;100.00
43878;BME280;29815;48.184;11.268;2023-02-28T06:32:25;96029.69;;;-3.47;100.00
43878;BME280;29815;48.184;11.268;2023-02-28T06:34:55;96039.06;;;-3.44;100.00
43878;BME280;29815;48.184;11.268;2023-02-28T06:37:26;96038.06;;;-3.43;100.00
43878;BME280;29815;48.184;11.268;2023-02-28T06:39:55;96042.81;;;-3.38;100.00
43878;BME280;29815;48.184;11.268;2023-02-28T06:42:26;96037.56;;;-3.38;100.00
43878;BME280;29815;48.184;11.268;2023-02-28T06:44:59;96048.25;;;-3.40;100.00
43878;BME280;29815;48.184;11.268;2023-02-28T06:47:31;96055.16;;;-3.39;100.00
43878;BME280;29815;48.184;11.268;2023-02-28T06:50:01;96059.59;;;-3.39;100.00
43878;BME280;29815;48.184;11.268;2023-02-28T06:52:31;96056.78;;;-3.38;100.00
43878;BME280;29815;48.184;11.268;2023-02-28T06:55:01;96063.53;;;-3.35;100.00
43878;BME280;29815;48.184;11.268;2023-02-28T06:57:34;96064.50;;;-3.36;100.00
43878;BME280;29815;48.184;11.268;2023-02-28T07:00:10;96076.69;;;-3.35;100.00
43878;BME280;29815;48.184;11.268;2023-02-28T07:02:42;96062.69;;;-3.36;100.00
43878;BME280;29815;48.184;11.268;2023-02-28T07:05:12;96066.63;;;-3.32;100.00
43878;BME280;29815;48.184;11.268;2023-02-28T07:07:41;96064.66;;;-3.30;100.00
43878;BME280;29815;48.184;11.268;2023-02-28T07:10:13;96056.75;;;-3.30;100.00
43878;BME280;29815;48.184;11.268;2023-02-28T07:12:48;96065.75;;;-3.24;100.00
43878;BME280;29815;48.184;11.268;2023-02-28T07:15:19;96065.59;;;-3.23;100.00
43878;BME280;29815;48.184;11.268;2023-02-28T07:17:49;96068.06;;;-3.21;100.00
43878;BME280;29815;48.184;11.268;2023-02-28T07:20:18;96063.94;;;-3.24;100.00
43878;BME280;29815;48.184;11.268;2023-02-28T07:22:48;96069.88;;;-3.22;100.00
43878;BME280;29815;48.184;11.268;2023-02-28T07:25:25;96073.28;;;-3.13;100.00
43878;BME280;29815;48.184;11.268;2023-02-28T07:27:58;96073.13;;;-3.12;100.00
43878;BME280;29815;48.184;11.268;2023-02-28T07:30:28;96072.13;;;-3.11;100.00
43878;BME280;29815;48.184;11.268;2023-02-28T07:32:57;96062.41;;;-3.10;100.00
43878;BME280;29815;48.184;11.268;2023-02-28T07:35:27;96067.16;;;-3.05;100.00
43878;BME280;29815;48.184;11.268;2023-02-28T07:37:57;96076.88;;;-3.06;100.00
43878;BME280;29815;48.184;11.268;2023-02-28T07:40:27;96071.63;;;-3.06;100.00
43878;BME280;29815;48.184;11.268;2023-02-28T07:42:59;96070.28;;;-3.02;100.00
43878;BME280;29815;48.184;11.268;2023-02-28T07:45:30;96074.00;;;-2.96;100.00
43878;BME280;29815;48.184;11.268;2023-02-28T07:48:02;96071.19;;;-2.95;100.00
43878;BME280;29815;48.184;11.268;2023-02-28T07:50:32;96068.88;;;-2.90;100.00
43878;BME280;29815;48.184;11.268;2023-02-28T07:53:02;96079.06;;;-2.87;100.00
43878;BME280;29815;48.184;11.268;2023-02-28T07:55:32;96069.19;;;-2.85;100.00
43878;BME280;29815;48.184;11.268;2023-02-28T07:58:03;96069.81;;;-2.83;100.00
43878;BME280;29815;48.184;11.268;2023-02-28T08:00:33;96077.38;;;-2.80;100.00
43878;BME280;29815;48.184;11.268;2023-02-28T08:03:03;96074.56;;;-2.78;100.00
43878;BME280;29815;48.184;11.268;2023-02-28T08:05:32;96077.03;;;-2.77;100.00
43878;BME280;29815;48.184;11.268;2023-02-28T08:08:02;96071.94;;;-2.78;100.00
43878;BME280;29815;48.184;11.268;2023-02-28T08:10:32;96084.22;;;-2.70;100.00
43878;BME280;29815;48.184;11.268;2023-02-28T08:13:03;96084.22;;;-2.70;100.00
43878;BME280;29815;48.184;11.268;2023-02-28T08:15:33;96088.31;;;-2.68;100.00
43878;BME280;29815;48.184;11.268;2023-02-28T08:18:03;96095.41;;;-2.68;100.00
43878;BME280;29815;48.184;11.268;2023-02-28T08:20:33;96089.16;;;-2.67;100.00
43878;BME280;29815;48.184;11.268;2023-02-28T08:23:04;96103.63;;;-2.63;100.00
43878;BME280;29815;48.184;11.268;2023-02-28T08:25:34;96100.63;;;-2.60;100.00
43878;BME280;29815;48.184;11.268;2023-02-28T08:28:07;96106.72;;;-2.60;100.00
43878;BME280;29815;48.184;11.268;2023-02-28T08:30:37;96104.25;;;-2.61;100.00
43878;BME280;29815;48.184;11.268;2023-02-28T08:33:09;96104.75;;;-2.58;100.00
43878;BME280;29815;48.184;11.268;2023-02-28T08:35:39;96109.50;;;-2.53;100.00
43878;BME280;29815;48.184;11.268;2023-02-28T08:38:09;96104.56;;;-2.56;100.00
43878;BME280;29815;48.184;11.268;2023-02-28T08:40:39;96104.56;;;-2.56;100.00
43878;BME280;29815;48.184;11.268;2023-02-28T08:43:11;96105.38;;;-2.56;100.00
43878;BME280;29815;48.184;11.268;2023-02-28T08:45:41;96112.59;;;-2.50;100.00
43878;BME280;29815;48.184;11.268;2023-02-28T08:48:11;96108.78;;;-2.47;100.00
43878;BME280;29815;48.184;11.268;2023-02-28T08:50:43;96122.72;;;-2.39;100.00
43878;BME280;29815;48.184;11.268;2023-02-28T08:53:23;96116.44;;;-2.38;100.00
43878;BME280;29815;48.184;11.268;2023-02-28T08:55:58;96117.09;;;-2.35;100.00
43878;BME280;29815;48.184;11.268;2023-02-28T08:58:30;96118.72;;;-2.34;100.00
43878;BME280;29815;48.184;11.268;2023-02-28T09:00:59;96124.13;;;-2.28;100.00
43878;BME280;29815;48.184;11.268;2023-02-28T09:03:29;96122.84;;;-2.32;100.00
43878;BME280;29815;48.184;11.268;2023-02-28T09:06:00;96121.53;;;-2.36;100.00
43878;BME280;29815;48.184;11.268;2023-02-28T09:08:30;96115.94;;;-2.33;100.00
43878;BME280;29815;48.184;11.268;2023-02-28T09:11:00;96116.91;;;-2.34;100.00
43878;BME280;29815;48.184;11.268;2023-02-28T09:13:32;96122.38;;;-2.35;100.00
43878;BME280;29815;48.184;11.268;2023-02-28T09:16:05;96123.31;;;-2.28;100.00
43878;BME280;29815;48.184;11.268;2023-02-28T09:18:38;96122.78;;;-2.24;100.00
43878;BME280;29815;48.184;11.268;2023-02-28T09:21:09;96119.97;;;-2.22;100.00
43878;BME280;29815;48.184;11.268;2023-02-28T09:23:42;96132.91;;;-2.13;100.00
43878;BME280;29815;48.184;11.268;2023-02-28T09:26:14;96134.63;;;-2.20;100.00
43878;BME280;29815;48.184;11.268;2023-02-28T09:28:46;96132.09;;;-2.13;100.00
43878;BME280;29815;48.184;11.268;2023-02-28T09:31:20;96131.38;;;-2.07;100.00
43878;BME280;29815;48.184;11.268;2023-02-28T09:33:54;96127.91;;;-2.08;100.00
43878;BME280;29815;48.184;11.268;2023-02-28T09:36:26;96141.06;;;-1.99;100.00
43878;BME280;29815;48.184;11.268;2023-02-28T09:39:11;96147.69;;;-1.89;100.00
43878;BME280;29815;48.184;11.268;2023-02-28T09:41:46;96146.66;;;-1.80;100.00
43878;BME280;29815;48.184;11.268;2023-02-28T09:44:28;96146.41;;;-1.70;100.00
43878;BME280;29815;48.184;11.268;2023-02-28T09:47:10;96149.13;;;-1.63;100.00
43878;BME280;29815;48.184;11.268;2023-02-28T09:49:45;96150.84;;;-1.71;100.00
43878;BME280;29815;48.184;11.268;2023-02-28T09:52:19;96162.31;;;-1.63;100.00
43878;BME280;29815;48.184;11.268;2023-02-28T09:54:52;96152.22;;;-1.60;100.00
43878;BME280;29815;48.184;11.268;2023-02-28T09:57:33;96156.97;;;-1.55;100.00
43878;BME280;29815;48.184;11.268;2023-02-28T10:00:15;96159.53;;;-1.47;100.00
43878;BME280;29815;48.184;11.268;2023-02-28T10:03:16;96164.38;;;-1.36;100.00
43878;BME280;29815;48.184;11.268;2023-02-28T10:05:59;96167.66;;;-1.34;100.00
43878;BME280;29815;48.184;11.268;2023-02-28T10:08:40;96171.22;;;-1.27;100.00
43878;BME280;29815;48.184;11.268;2023-02-28T10:11:16;96161.75;;;-1.21;100.00
43878;BME280;29815;48.184;11.268;2023-02-28T10:13:53;96165.50;;;-1.16;100.00
43878;BME280;29815;48.184;11.268;2023-02-28T10:16:35;96152.63;;;-1.04;100.00
43878;BME280;29815;48.184;11.268;2023-02-28T10:19:14;96162.38;;;-1.05;100.00
43878;BME280;29815;48.184;11.268;2023-02-28T10:21:55;96165.19;;;-0.91;100.00
43878;BME280;29815;48.184;11.268;2023-02-28T10:24:34;96168.19;;;-0.80;100.00
43878;BME280;29815;48.184;11.268;2023-02-28T10:27:15;96176.03;;;-0.72;100.00
43878;BME280;29815;48.184;11.268;2023-02-28T10:29:50;96170.81;;;-0.65;100.00
43878;BME280;29815;48.184;11.268;2023-02-28T10:32:25;96177.66;;;-0.56;100.00
43878;BME280;29815;48.184;11.268;2023-02-28T10:35:06;96173.97;;;-0.40;100.00
43878;BME280;29815;48.184;11.268;2023-02-28T10:37:44;96171.44;;;-0.27;100.00
43878;BME280;29815;48.184;11.268;2023-02-28T10:40:31;96176.56;;;-0.25;100.00
43878;BME280;29815;48.184;11.268;2023-02-28T10:43:05;96175.13;;;-0.28;100.00
43878;BME280;29815;48.184;11.268;2023-02-28T10:45:58;96171.44;;;-0.27;100.00
43878;BME280;29815;48.184;11.268;2023-02-28T10:48:36;96182.84;;;-0.26;100.00
43878;BME280;29815;48.184;11.268;2023-02-28T10:51:09;96181.16;;;-0.34;100.00
43878;BME280;29815;48.184;11.268;2023-02-28T10:53:50;96180.34;;;-0.35;100.00
43878;BME280;29815;48.184;11.268;2023-02-28T10:56:30;96177.31;;;-0.31;100.00
43878;BME280;29815;48.184;11.268;2023-02-28T10:59:19;96169.94;;;-0.36;100.00
43878;BME280;29815;48.184;11.268;2023-02-28T11:01:57;96185.81;;;-0.36;100.00
43878;BME280;29815;48.184;11.268;2023-02-28T11:04:38;96179.88;;;-0.38;100.00
43878;BME280;29815;48.184;11.268;2023-02-28T11:07:19;96182.25;;;-0.43;100.00
43878;BME280;29815;48.184;11.268;2023-02-28T11:09:54;96194.09;;;-0.39;100.00
43878;BME280;29815;48.184;11.268;2023-02-28T11:12:29;96187.19;;;-0.40;100.00
43878;BME280;29815;48.184;11.268;2023-02-28T11:15:23;96190.66;;;-0.40;100.00
43878;BME280;29815;48.184;11.268;2023-02-28T11:17:58;96189.75;;;-0.47;100.00
43878;BME280;29815;48.184;11.268;2023-02-28T11:20:33;96184.44;;;-0.47;100.00
43878;BME280;29815;48.184;11.268;2023-02-28T11:23:05;96196.56;;;-0.38;100.00
43878;BME280;29815;48.184;11.268;2023-02-28T11:25:48;96192.38;;;-0.32;100.00
43878;BME280;29815;48.184;11.268;2023-02-28T11:28:28;96186.13;;;-0.24;100.00
43878;BME280;29815;48.184;11.268;2023-02-28T11:31:05;96181.53;;;-0.16;100.00
43878;BME280;29815;48.184;11.268;2023-02-28T11:33:47;96189.63;;;-0.03;100.00
43878;BME280;29815;48.184;11.268;2023-02-28T11:36:23;96181.00;;;0.10;100.00
43878;BME280;29815;48.184;11.268;2023-02-28T11:38:58;96173.94;;;0.17;100.00
43878;BME280;29815;48.184;11.268;2023-02-28T11:41:46;96172.81;;;0.26;100.00
43878;BME280;29815;48.184;11.268;2023-02-28T11:44:48;96171.16;;;0.25;100.00
43878;BME280;29815;48.184;11.268;2023-02-28T11:47:34;96166.28;;;0.29;100.00
43878;BME280;29815;48.184;11.268;2023-02-28T11:50:26;96156.13;;;0.32;100.00
43878;BME280;29815;48.184;11.268;2023-02-28T11:53:47;96161.38;;;0.47;100.00
43878;BME280;29815;48.184;11.268;2023-02-28T11:56:27;96150.19;;;0.52;100.00
43878;BME280;29815;48.184;11.268;2023-02-28T11:59:19;96143.47;;;0.56;100.00
43878;BME280;29815;48.184;11.268;2023-02-28T12:02:24;96143.72;;;0.61;100.00
43878;BME280;29815;48.184;11.268;2023-02-28T12:05:15;96147.63;;;0.65;100.00
43878;BME280;29815;48.184;11.268;2023-02-28T12:08:15;96141.94;;;0.68;100.00
43878;BME280;29815;48.184;11.268;2023-02-28T12:11:06;96134.09;;;0.81;100.00
43878;BME280;29815;48.184;11.268;2023-02-28T12:13:50;96145.09;;;0.85;100.00
43878;BME280;29815;48.184;11.268;2023-02-28T12:16:40;96137.63;;;0.95;100.00
43878;BME280;29815;48.184;11.268;2023-02-28T12:19:21;96146.06;;;1.05;100.00
43878;BME280;29815;48.184;11.268;2023-02-28T12:22:16;96137.28;;;1.11;100.00
43878;BME280;29815;48.184;11.268;2023-02-28T12:25:48;96128.78;;;1.22;100.00
43878;BME280;29815;48.184;11.268;2023-02-28T12:28:37;96125.13;;;1.23;100.00
43878;BME280;29815;48.184;11.268;2023-02-28T12:31:14;96129.25;;;1.32;100.00
43878;BME280;29815;48.184;11.268;2023-02-28T12:33:53;96125.59;;;1.40;100.00
43878;BME280;29815;48.184;11.268;2023-02-28T12:36:26;96127.06;;;1.49;100.00
43878;BME280;29815;48.184;11.268;2023-02-28T12:39:01;96112.81;;;1.57;100.00
43878;BME280;29815;48.184;11.268;2023-02-28T12:41:41;96109.56;;;1.68;100.00
43878;BME280;29815;48.184;11.268;2023-02-28T12:44:19;96105.72;;;1.84;100.00
43878;BME280;29815;48.184;11.268;2023-02-28T12:46:53;96113.88;;;1.95;100.00
43878;BME280;29815;48.184;11.268;2023-02-28T12:49:31;96112.06;;;2.02;100.00
43878;BME280;29815;48.184;11.268;2023-02-28T12:52:04;96104.53;;;2.26;100.00
43878;BME280;29815;48.184;11.268;2023-02-28T12:54:46;96102.25;;;2.49;100.00
43878;BME280;29815;48.184;11.268;2023-02-28T12:57:33;96097.34;;;2.72;100.00
43878;BME280;29815;48.184;11.268;2023-02-28T13:00:13;96103.63;;;2.98;100.00
43878;BME280;29815;48.184;11.268;2023-02-28T13:03:21;96102.47;;;3.32;100.00
43878;BME280;29815;48.184;11.268;2023-02-28T13:06:20;96093.22;;;3.41;100.00
43878;BME280;29815;48.184;11.268;2023-02-28T13:09:08;96087.25;;;3.52;100.00
43878;BME280;29815;48.184;11.268;2023-02-28T13:11:41;96089.72;;;3.47;98.05
43878;BME280;29815;48.184;11.268;2023-02-28T13:14:25;96092.94;;;3.56;100.00
43878;BME280;29815;48.184;11.268;2023-02-28T13:17:10;96095.97;;;3.66;98.55
43878;BME280;29815;48.184;11.268;2023-02-28T13:19:44;96093.41;;;3.84;100.00
43878;BME280;29815;48.184;11.268;2023-02-28T13:22:36;96095.38;;;3.95;95.89
43878;BME280;29815;48.184;11.268;2023-02-28T13:25:51;96096.50;;;3.81;89.16